sensor_id;sensor_type;location;lat;lon;timestamp;pressure;altitude;pressure_sealevel;temperature;humidity
64698;BME280;51124;53.394;-6.294;2023-03-17T00:01:52;98931.58;;;19.76;12.85
64698;BME280;51124;53.394;-6.294;2023-03-17T00:04:21;98930.86;;;20.84;12.26
64698;BME280;51124;53.394;-6.294;2023-03-17T00:06:49;98929.19;;;19.02;12.68
64698;BME280;51124;53.394;-6.294;2023-03-17T00:09:18;98922.21;;;19.97;12.41
64698;BME280;51124;53.394;-6.294;2023-03-17T00:11:47;98920.54;;;19.69;12.68
64698;BME280;51124;53.394;-6.294;2023-03-17T00:14:15;98921.84;;;20.13;12.66
64698;BME280;51124;53.394;-6.294;2023-03-17T00:16:44;98919.94;;;20.45;12.56
64698;BME280;51124;53.394;-6.294;2023-03-17T00:19:16;98920.05;;;19.52;12.77
64698;BME280;51124;53.394;-6.294;2023-03-17T00:21:44;98922.51;;;20.39;12.39
64698;BME280;51124;53.394;-6.294;2023-03-17T00:24:12;98924.08;;;17.95;12.35
64698;BME280;51124;53.394;-6.294;2023-03-17T00:26:40;98923.35;;;17.57;11.62
64698;BME280;51124;53.394;-6.294;2023-03-17T00:29:08;98919.41;;;17.70;11.23
64698;BME280;51124;53.394;-6.294;2023-03-17T00:31:35;98919.41;;;17.71;11.06
64698;BME280;51124;53.394;-6.294;2023-03-17T00:34:04;98916.80;;;18.26;11.07
64698;BME280;51124;53.394;-6.294;2023-03-17T00:36:32;98917.39;;;18.20;10.62
64698;BME280;51124;53.394;-6.294;2023-03-17T00:39:00;98915.92;;;17.66;10.44
64698;BME280;51124;53.394;-6.294;2023-03-17T00:41:28;98914.67;;;17.29;10.51
64698;BME280;51124;53.394;-6.294;2023-03-17T00:43:55;98908.24;;;18.09;10.21
64698;BME280;51124;53.394;-6.294;2023-03-17T00:46:26;98903.95;;;17.41;10.22
64698;BME280;51124;53.394;-6.294;2023-03-17T00:48:54;98905.01;;;17.43;10.17
64698;BME280;51124;53.394;-6.294;2023-03-17T00:51:22;98903.98;;;17.61;10.08
64698;BME280;51124;53.394;-6.294;2023-03-17T00:53:49;98904.64;;;17.11;10.13
64698;BME280;51124;53.394;-6.294;2023-03-17T00:56:18;98910.40;;;17.96;9.84
64698;BME280;51124;53.394;-6.294;2023-03-17T00:58:47;98912.19;;;17.44;9.84
64698;BME280;51124;53.394;-6.294;2023-03-17T01:01:14;98911.45;;;18.04;9.81
64698;BME280;51124;53.394;-6.294;2023-03-17T01:03:42;98912.53;;;16.84;9.86
64698;BME280;51124;53.394;-6.294;2023-03-17T01:06:11;98911.75;;;17.84;9.74
64698;BME280;51124;53.394;-6.294;2023-03-17T01:08:40;98917.52;;;18.03;9.62
64698;BME280;51124;53.394;-6.294;2023-03-17T01:11:12;98915.29;;;17.10;9.69
64698;BME280;51124;53.394;-6.294;2023-03-17T01:13:40;98918.54;;;17.76;9.73
64698;BME280;51124;53.394;-6.294;2023-03-17T01:16:10;98919.21;;;17.71;9.58
64698;BME280;51124;53.394;-6.294;2023-03-17T01:18:38;98920.07;;;17.78;9.56
64698;BME280;51124;53.394;-6.294;2023-03-17T01:21:05;98921.74;;;17.53;9.49
64698;BME280;51124;53.394;-6.294;2023-03-17T01:23:33;98931.57;;;16.97;9.81
64698;BME280;51124;53.394;-6.294;2023-03-17T01:26:00;98924.53;;;17.14;9.61
64698;BME280;51124;53.394;-6.294;2023-03-17T01:28:27;98922.72;;;17.38;9.43
64698;BME280;51124;53.394;-6.294;2023-03-17T01:30:55;98924.86;;;16.81;9.59
64698;BME280;51124;53.394;-6.294;2023-03-17T01:33:22;98923.64;;;17.36;9.59
64698;BME280;51124;53.394;-6.294;2023-03-17T01:35:51;98921.00;;;17.51;9.51
64698;BME280;51124;53.394;-6.294;2023-03-17T01:38:19;98921.49;;;16.94;9.57
64698;BME280;51124;53.394;-6.294;2023-03-17T01:40:49;98920.02;;;17.33;9.49
64698;BME280;51124;53.394;-6.294;2023-03-17T01:43:20;98923.66;;;17.16;9.36
64698;BME280;51124;53.394;-6.294;2023-03-17T01:46:23;98923.21;;;17.62;9.41
64698;BME280;51124;53.394;-6.294;2023-03-17T01:48:21;98917.70;;;17.61;9.33
64698;BME280;51124;53.394;-6.294;2023-03-17T01:50:48;98915.58;;;18.16;9.20
64698;BME280;51124;53.394;-6.294;2023-03-17T01:53:16;98921.30;;;17.06;9.28
64698;BME280;51124;53.394;-6.294;2023-03-17T01:55:44;98912.26;;;17.76;9.66
64698;BME280;51124;53.394;-6.294;2023-03-17T01:58:12;98908.66;;;16.85;9.69
64698;BME280;51124;53.394;-6.294;2023-03-17T02:00:41;98910.91;;;17.31;9.53
64698;BME280;51124;53.394;-6.294;2023-03-17T02:03:08;98905.12;;;17.55;9.43
64698;BME280;51124;53.394;-6.294;2023-03-17T02:05:36;98909.33;;;17.33;9.55
64698;BME280;51124;53.394;-6.294;2023-03-17T02:08:10;98902.96;;;17.82;9.48
64698;BME280;51124;53.394;-6.294;2023-03-17T02:10:38;98907.10;;;18.41;9.32
64698;BME280;51124;53.394;-6.294;2023-03-17T02:13:06;98910.60;;;16.70;9.49
64698;BME280;51124;53.394;-6.294;2023-03-17T02:15:39;98905.25;;;17.17;9.23
64698;BME280;51124;53.394;-6.294;2023-03-17T02:18:07;98899.82;;;17.26;9.32
64698;BME280;51124;53.394;-6.294;2023-03-17T02:21:42;98895.36;;;17.49;9.15
64698;BME280;51124;53.394;-6.294;2023-03-17T02:23:09;98897.07;;;17.31;9.42
64698;BME280;51124;53.394;-6.294;2023-03-17T02:25:37;98904.33;;;19.29;9.80
64698;BME280;51124;53.394;-6.294;2023-03-17T02:28:09;98905.58;;;19.19;10.15
64698;BME280;51124;53.394;-6.294;2023-03-17T02:30:37;98901.68;;;17.78;10.12
64698;BME280;51124;53.394;-6.294;2023-03-17T02:33:05;98907.22;;;21.55;10.07
64698;BME280;51124;53.394;-6.294;2023-03-17T02:35:33;98908.12;;;20.75;10.75
64698;BME280;51124;53.394;-6.294;2023-03-17T02:38:01;98903.47;;;20.13;11.26
64698;BME280;51124;53.394;-6.294;2023-03-17T02:40:29;98903.88;;;20.30;11.36
64698;BME280;51124;53.394;-6.294;2023-03-17T02:42:56;98905.65;;;19.85;11.51
64698;BME280;51124;53.394;-6.294;2023-03-17T02:45:24;98909.15;;;20.46;11.63
64698;BME280;51124;53.394;-6.294;2023-03-17T02:47:52;98906.32;;;19.87;11.83
64698;BME280;51124;53.394;-6.294;2023-03-17T02:50:24;98900.37;;;19.77;11.88
64698;BME280;51124;53.394;-6.294;2023-03-17T02:52:53;98895.00;;;19.95;11.82
64698;BME280;51124;53.394;-6.294;2023-03-17T02:55:20;98888.86;;;19.98;11.87
64698;BME280;51124;53.394;-6.294;2023-03-17T02:57:48;98884.60;;;20.28;11.92
64698;BME280;51124;53.394;-6.294;2023-03-17T03:00:17;98881.24;;;20.22;11.79
64698;BME280;51124;53.394;-6.294;2023-03-17T03:02:44;98882.44;;;20.04;11.93
64698;BME280;51124;53.394;-6.294;2023-03-17T03:05:12;98888.79;;;19.75;11.95
64698;BME280;51124;53.394;-6.294;2023-03-17T03:07:40;98885.74;;;19.71;12.06
64698;BME280;51124;53.394;-6.294;2023-03-17T03:10:09;98882.66;;;19.61;12.16
64698;BME280;51124;53.394;-6.294;2023-03-17T03:12:37;98885.32;;;19.89;12.01
64698;BME280;51124;53.394;-6.294;2023-03-17T03:15:06;98884.76;;;19.94;12.03
64698;BME280;51124;53.394;-6.294;2023-03-17T03:17:34;98885.63;;;19.33;12.23
64698;BME280;51124;53.394;-6.294;2023-03-17T03:20:02;98879.64;;;19.40;12.14
64698;BME280;51124;53.394;-6.294;2023-03-17T03:22:29;98877.98;;;18.97;12.09
64698;BME280;51124;53.394;-6.294;2023-03-17T03:24:57;98872.90;;;17.18;11.81
64698;BME280;51124;53.394;-6.294;2023-03-17T03:27:24;98872.74;;;17.15;11.01
64698;BME280;51124;53.394;-6.294;2023-03-17T03:29:52;98873.24;;;17.11;10.94
64698;BME280;51124;53.394;-6.294;2023-03-17T03:32:19;98873.27;;;16.82;10.61
64698;BME280;51124;53.394;-6.294;2023-03-17T03:34:46;98875.26;;;17.42;10.43
64698;BME280;51124;53.394;-6.294;2023-03-17T03:37:14;98871.68;;;17.28;10.11
64698;BME280;51124;53.394;-6.294;2023-03-17T03:39:41;98868.55;;;16.06;10.27
64698;BME280;51124;53.394;-6.294;2023-03-17T03:42:09;98865.63;;;17.87;9.65
64698;BME280;51124;53.394;-6.294;2023-03-17T03:44:36;98869.87;;;16.23;10.00
64698;BME280;51124;53.394;-6.294;2023-03-17T03:47:03;98866.54;;;16.83;9.71
64698;BME280;51124;53.394;-6.294;2023-03-17T03:49:31;98864.16;;;18.10;9.47
64698;BME280;51124;53.394;-6.294;2023-03-17T03:51:58;98863.92;;;17.87;9.40
64698;BME280;51124;53.394;-6.294;2023-03-17T03:54:25;98865.36;;;17.12;9.60
64698;BME280;51124;53.394;-6.294;2023-03-17T03:56:53;98864.69;;;16.94;9.55
64698;BME280;51124;53.394;-6.294;2023-03-17T03:59:20;98866.63;;;17.25;9.46
64698;BME280;51124;53.394;-6.294;2023-03-17T04:01:47;98866.74;;;17.79;9.32
64698;BME280;51124;53.394;-6.294;2023-03-17T04:04:15;98868.48;;;16.31;9.44
64698;BME280;51124;53.394;-6.294;2023-03-17T04:06:42;98871.44;;;17.07;9.33
64698;BME280;51124;53.394;-6.294;2023-03-17T04:09:09;98873.54;;;16.80;9.45
64698;BME280;51124;53.394;-6.294;2023-03-17T04:11:37;98870.66;;;17.27;9.26
64698;BME280;51124;53.394;-6.294;2023-03-17T04:14:04;98870.35;;;17.12;9.21
64698;BME280;51124;53.394;-6.294;2023-03-17T04:16:31;98871.86;;;17.52;9.30
64698;BME280;51124;53.394;-6.294;2023-03-17T04:18:58;98866.09;;;17.22;9.28
64698;BME280;51124;53.394;-6.294;2023-03-17T04:21:26;98865.93;;;16.69;9.22
64698;BME280;51124;53.394;-6.294;2023-03-17T04:23:53;98869.73;;;16.59;9.21
64698;BME280;51124;53.394;-6.294;2023-03-17T04:26:20;98868.67;;;17.09;9.10
64698;BME280;51124;53.394;-6.294;2023-03-17T04:28:48;98863.23;;;17.30;9.14
64698;BME280;51124;53.394;-6.294;2023-03-17T04:31:15;98860.95;;;17.21;9.25
64698;BME280;51124;53.394;-6.294;2023-03-17T04:33:42;98851.07;;;17.11;8.95
64698;BME280;51124;53.394;-6.294;2023-03-17T04:36:16;98855.37;;;17.39;9.07
64698;BME280;51124;53.394;-6.294;2023-03-17T04:38:43;98855.08;;;18.06;9.04
64698;BME280;51124;53.394;-6.294;2023-03-17T04:41:11;98861.62;;;18.07;9.02
64698;BME280;51124;53.394;-6.294;2023-03-17T04:43:38;98864.56;;;16.82;9.15
64698;BME280;51124;53.394;-6.294;2023-03-17T04:46:06;98859.21;;;17.28;9.01
64698;BME280;51124;53.394;-6.294;2023-03-17T04:48:34;98859.24;;;17.64;9.19
64698;BME280;51124;53.394;-6.294;2023-03-17T04:51:01;98861.92;;;17.08;9.18
64698;BME280;51124;53.394;-6.294;2023-03-17T04:53:28;98853.57;;;17.54;8.97
64698;BME280;51124;53.394;-6.294;2023-03-17T04:55:56;98848.79;;;17.38;9.33
64698;BME280;51124;53.394;-6.294;2023-03-17T04:58:23;98851.84;;;17.17;9.13
64698;BME280;51124;53.394;-6.294;2023-03-17T05:00:50;98852.29;;;17.53;9.24
64698;BME280;51124;53.394;-6.294;2023-03-17T05:03:18;98853.57;;;18.02;9.11
64698;BME280;51124;53.394;-6.294;2023-03-17T05:05:45;98857.45;;;16.97;9.19
64698;BME280;51124;53.394;-6.294;2023-03-17T05:08:12;98859.46;;;17.37;9.21
64698;BME280;51124;53.394;-6.294;2023-03-17T05:10:39;98860.06;;;17.31;9.19
64698;BME280;51124;53.394;-6.294;2023-03-17T05:13:07;98856.44;;;16.83;9.20
64698;BME280;51124;53.394;-6.294;2023-03-17T05:15:34;98850.96;;;17.37;9.04
64698;BME280;51124;53.394;-6.294;2023-03-17T05:18:01;98854.84;;;16.42;9.21
64698;BME280;51124;53.394;-6.294;2023-03-17T05:20:29;98856.92;;;16.82;9.12
64698;BME280;51124;53.394;-6.294;2023-03-17T05:22:56;98858.52;;;15.73;9.27
64698;BME280;51124;53.394;-6.294;2023-03-17T05:25:24;98861.76;;;20.47;9.40
64698;BME280;51124;53.394;-6.294;2023-03-17T05:27:51;98866.17;;;19.89;9.79
64698;BME280;51124;53.394;-6.294;2023-03-17T05:30:19;98864.82;;;17.94;10.01
64698;BME280;51124;53.394;-6.294;2023-03-17T05:32:46;98865.71;;;20.20;10.04
64698;BME280;51124;53.394;-6.294;2023-03-17T05:35:14;98864.26;;;20.70;10.56
64698;BME280;51124;53.394;-6.294;2023-03-17T05:37:42;98865.32;;;20.15;10.98
64698;BME280;51124;53.394;-6.294;2023-03-17T05:40:11;98865.66;;;20.18;11.19
64698;BME280;51124;53.394;-6.294;2023-03-17T05:42:40;98867.72;;;19.29;11.50
64698;BME280;51124;53.394;-6.294;2023-03-17T05:45:08;98866.69;;;18.73;11.62
64698;BME280;51124;53.394;-6.294;2023-03-17T05:47:36;98869.30;;;19.76;11.45
64698;BME280;51124;53.394;-6.294;2023-03-17T05:50:05;98866.48;;;19.89;11.84
64698;BME280;51124;53.394;-6.294;2023-03-17T05:52:32;98870.22;;;19.98;11.60
64698;BME280;51124;53.394;-6.294;2023-03-17T05:55:00;98871.36;;;18.97;11.97
64698;BME280;51124;53.394;-6.294;2023-03-17T05:57:28;98867.54;;;19.42;11.86
64698;BME280;51124;53.394;-6.294;2023-03-17T05:59:56;98872.24;;;19.60;11.77
64698;BME280;51124;53.394;-6.294;2023-03-17T06:02:24;98866.88;;;19.20;11.94
64698;BME280;51124;53.394;-6.294;2023-03-17T06:04:51;98866.91;;;19.82;11.67
64698;BME280;51124;53.394;-6.294;2023-03-17T06:07:19;98869.40;;;20.59;11.30
64698;BME280;51124;53.394;-6.294;2023-03-17T06:09:47;98870.14;;;19.87;11.77
64698;BME280;51124;53.394;-6.294;2023-03-17T06:12:15;98868.87;;;19.55;11.90
64698;BME280;51124;53.394;-6.294;2023-03-17T06:14:43;98865.46;;;19.12;12.05
64698;BME280;51124;53.394;-6.294;2023-03-17T06:17:10;98868.71;;;18.86;12.13
64698;BME280;51124;53.394;-6.294;2023-03-17T06:19:38;98868.12;;;18.63;12.34
64698;BME280;51124;53.394;-6.294;2023-03-17T06:22:06;98865.20;;;18.52;12.20
64698;BME280;51124;53.394;-6.294;2023-03-17T06:24:34;98863.67;;;16.99;11.73
64698;BME280;51124;53.394;-6.294;2023-03-17T06:27:01;98863.90;;;16.69;11.35
64698;BME280;51124;53.394;-6.294;2023-03-17T06:29:29;98866.96;;;17.10;10.99
64698;BME280;51124;53.394;-6.294;2023-03-17T06:31:56;98870.58;;;16.36;10.67
64698;BME280;51124;53.394;-6.294;2023-03-17T06:34:24;98868.96;;;17.19;10.58
64698;BME280;51124;53.394;-6.294;2023-03-17T06:36:51;98866.30;;;16.29;10.47
64698;BME280;51124;53.394;-6.294;2023-03-17T06:39:19;98868.47;;;16.80;10.03
64698;BME280;51124;53.394;-6.294;2023-03-17T06:41:46;98864.04;;;17.12;9.74
64698;BME280;51124;53.394;-6.294;2023-03-17T06:44:13;98871.10;;;16.20;10.01
64698;BME280;51124;53.394;-6.294;2023-03-17T06:46:41;98866.45;;;16.36;9.94
64698;BME280;51124;53.394;-6.294;2023-03-17T06:49:08;98870.18;;;16.65;9.77
64698;BME280;51124;53.394;-6.294;2023-03-17T06:51:36;98870.80;;;16.08;9.76
64698;BME280;51124;53.394;-6.294;2023-03-17T06:54:03;98870.17;;;17.61;9.67
64698;BME280;51124;53.394;-6.294;2023-03-17T06:56:31;98871.18;;;16.55;9.77
64698;BME280;51124;53.394;-6.294;2023-03-17T06:58:58;98874.33;;;16.06;9.64
64698;BME280;51124;53.394;-6.294;2023-03-17T07:01:26;98877.47;;;16.89;9.44
64698;BME280;51124;53.394;-6.294;2023-03-17T07:03:53;98878.81;;;17.15;9.35
64698;BME280;51124;53.394;-6.294;2023-03-17T07:06:21;98873.71;;;17.14;9.23
64698;BME280;51124;53.394;-6.294;2023-03-17T07:08:48;98875.65;;;16.55;9.26
64698;BME280;51124;53.394;-6.294;2023-03-17T07:11:15;98875.24;;;17.20;9.15
64698;BME280;51124;53.394;-6.294;2023-03-17T07:13:43;98877.48;;;17.34;9.25
64698;BME280;51124;53.394;-6.294;2023-03-17T07:16:11;98877.25;;;16.98;9.30
64698;BME280;51124;53.394;-6.294;2023-03-17T07:18:39;98881.20;;;16.55;9.25
64698;BME280;51124;53.394;-6.294;2023-03-17T07:21:07;98880.28;;;16.67;9.16
64698;BME280;51124;53.394;-6.294;2023-03-17T07:23:34;98879.55;;;16.56;9.11
64698;BME280;51124;53.394;-6.294;2023-03-17T07:26:02;98880.59;;;16.75;8.99
64698;BME280;51124;53.394;-6.294;2023-03-17T07:28:29;98880.64;;;16.67;8.99
64698;BME280;51124;53.394;-6.294;2023-03-17T07:30:56;98881.40;;;17.25;8.81
64698;BME280;51124;53.394;-6.294;2023-03-17T07:33:23;98883.62;;;17.31;8.99
64698;BME280;51124;53.394;-6.294;2023-03-17T07:35:51;98889.20;;;17.08;8.97
64698;BME280;51124;53.394;-6.294;2023-03-17T07:38:20;98893.07;;;16.24;9.06
64698;BME280;51124;53.394;-6.294;2023-03-17T07:40:48;98891.37;;;18.72;8.42
64698;BME280;51124;53.394;-6.294;2023-03-17T07:43:15;98898.76;;;17.37;8.95
64698;BME280;51124;53.394;-6.294;2023-03-17T07:45:43;98893.64;;;17.40;9.17
64698;BME280;51124;53.394;-6.294;2023-03-17T07:48:11;98897.30;;;16.87;9.22
64698;BME280;51124;53.394;-6.294;2023-03-17T07:50:38;98896.39;;;17.18;9.25
64698;BME280;51124;53.394;-6.294;2023-03-17T07:53:05;98896.50;;;16.28;9.50
64698;BME280;51124;53.394;-6.294;2023-03-17T07:55:33;98894.47;;;17.93;9.35
64698;BME280;51124;53.394;-6.294;2023-03-17T07:58:01;98894.35;;;17.54;9.69
64698;BME280;51124;53.394;-6.294;2023-03-17T08:00:28;98893.22;;;17.23;9.53
64698;BME280;51124;53.394;-6.294;2023-03-17T08:02:55;98897.44;;;17.07;9.47
64698;BME280;51124;53.394;-6.294;2023-03-17T08:05:23;98895.89;;;17.75;9.66
64698;BME280;51124;53.394;-6.294;2023-03-17T08:07:50;98899.81;;;17.01;9.51
64698;BME280;51124;53.394;-6.294;2023-03-17T08:10:17;98900.03;;;17.14;9.52
64698;BME280;51124;53.394;-6.294;2023-03-17T08:12:45;98902.26;;;17.70;9.38
64698;BME280;51124;53.394;-6.294;2023-03-17T08:15:13;98901.62;;;17.67;9.25
64698;BME280;51124;53.394;-6.294;2023-03-17T08:17:40;98898.80;;;18.18;9.19
64698;BME280;51124;53.394;-6.294;2023-03-17T08:20:08;98901.85;;;17.08;9.25
64698;BME280;51124;53.394;-6.294;2023-03-17T08:22:36;98900.70;;;17.82;9.04
64698;BME280;51124;53.394;-6.294;2023-03-17T08:25:04;98900.84;;;18.43;8.71
64698;BME280;51124;53.394;-6.294;2023-03-17T08:27:31;98901.89;;;21.58;9.16
64698;BME280;51124;53.394;-6.294;2023-03-17T08:29:59;98911.51;;;19.81;9.81
64698;BME280;51124;53.394;-6.294;2023-03-17T08:32:26;98914.86;;;18.63;9.85
64698;BME280;51124;53.394;-6.294;2023-03-17T08:34:55;98908.81;;;21.83;9.27
64698;BME280;51124;53.394;-6.294;2023-03-17T08:37:22;98914.47;;;22.06;10.04
64698;BME280;51124;53.394;-6.294;2023-03-17T08:39:50;98921.16;;;21.49;10.37
64698;BME280;51124;53.394;-6.294;2023-03-17T08:42:18;98915.33;;;22.88;9.96
64698;BME280;51124;53.394;-6.294;2023-03-17T08:44:46;98917.87;;;22.30;10.35
64698;BME280;51124;53.394;-6.294;2023-03-17T08:47:19;98918.39;;;21.57;10.68
64698;BME280;51124;53.394;-6.294;2023-03-17T08:49:46;98920.39;;;20.56;11.07
64698;BME280;51124;53.394;-6.294;2023-03-17T08:52:14;98914.78;;;20.92;11.15
64698;BME280;51124;53.394;-6.294;2023-03-17T08:54:42;98916.39;;;21.20;10.95
64698;BME280;51124;53.394;-6.294;2023-03-17T08:57:10;98910.94;;;21.68;10.82
64698;BME280;51124;53.394;-6.294;2023-03-17T08:59:38;98913.38;;;21.82;10.79
64698;BME280;51124;53.394;-6.294;2023-03-17T09:02:08;98913.57;;;21.12;10.84
64698;BME280;51124;53.394;-6.294;2023-03-17T09:04:37;98915.66;;;21.82;10.69
64698;BME280;51124;53.394;-6.294;2023-03-17T09:07:05;98915.34;;;22.13;10.53
64698;BME280;51124;53.394;-6.294;2023-03-17T09:09:34;98917.45;;;22.39;10.47
64698;BME280;51124;53.394;-6.294;2023-03-17T09:12:03;98916.10;;;21.42;10.80
64698;BME280;51124;53.394;-6.294;2023-03-17T09:14:32;98914.98;;;23.20;10.30
64698;BME280;51124;53.394;-6.294;2023-03-17T09:17:00;98913.99;;;21.89;10.52
64698;BME280;51124;53.394;-6.294;2023-03-17T09:19:28;98914.92;;;21.92;10.67
64698;BME280;51124;53.394;-6.294;2023-03-17T09:21:55;98921.09;;;21.71;11.08
64698;BME280;51124;53.394;-6.294;2023-03-17T09:24:23;98917.99;;;20.52;11.50
64698;BME280;51124;53.394;-6.294;2023-03-17T09:26:51;98919.25;;;19.82;11.04
64698;BME280;51124;53.394;-6.294;2023-03-17T09:29:19;98914.88;;;20.00;10.31
64698;BME280;51124;53.394;-6.294;2023-03-17T09:31:46;98911.76;;;19.66;9.81
64698;BME280;51124;53.394;-6.294;2023-03-17T09:34:13;98914.74;;;19.06;9.68
64698;BME280;51124;53.394;-6.294;2023-03-17T09:36:41;98914.47;;;19.94;9.47
64698;BME280;51124;53.394;-6.294;2023-03-17T09:39:08;98910.42;;;21.08;9.09
64698;BME280;51124;53.394;-6.294;2023-03-17T09:41:52;98910.77;;;20.65;8.69
64698;BME280;51124;53.394;-6.294;2023-03-17T09:44:10;98914.97;;;20.86;8.61
64698;BME280;51124;53.394;-6.294;2023-03-17T09:46:38;98914.81;;;19.44;8.80
64698;BME280;51124;53.394;-6.294;2023-03-17T09:49:00;98912.77;;;20.69;8.55
64698;BME280;51124;53.394;-6.294;2023-03-17T09:51:29;98918.71;;;20.22;8.47
64698;BME280;51124;53.394;-6.294;2023-03-17T09:54:00;98925.67;;;20.25;8.71
64698;BME280;51124;53.394;-6.294;2023-03-17T09:56:30;98919.58;;;20.16;8.37
64698;BME280;51124;53.394;-6.294;2023-03-17T09:59:02;98924.15;;;20.07;8.67
64698;BME280;51124;53.394;-6.294;2023-03-17T10:01:31;98928.05;;;20.25;8.68
64698;BME280;51124;53.394;-6.294;2023-03-17T10:03:58;98931.33;;;19.23;8.62
64698;BME280;51124;53.394;-6.294;2023-03-17T10:06:32;98930.73;;;19.20;8.49
64698;BME280;51124;53.394;-6.294;2023-03-17T10:09:13;98931.34;;;19.46;8.34
64698;BME280;51124;53.394;-6.294;2023-03-17T10:11:39;98930.64;;;20.02;8.30
64698;BME280;51124;53.394;-6.294;2023-03-17T10:14:17;98930.53;;;19.78;8.35
64698;BME280;51124;53.394;-6.294;2023-03-17T10:16:44;98934.04;;;19.97;8.22
64698;BME280;51124;53.394;-6.294;2023-03-17T10:19:19;98937.02;;;19.76;8.25
64698;BME280;51124;53.394;-6.294;2023-03-17T10:21:51;98936.70;;;19.21;8.25
64698;BME280;51124;53.394;-6.294;2023-03-17T10:24:20;98939.57;;;19.86;8.13
64698;BME280;51124;53.394;-6.294;2023-03-17T10:26:49;98941.73;;;19.91;8.11
64698;BME280;51124;53.394;-6.294;2023-03-17T10:29:18;98941.33;;;20.29;7.87
64698;BME280;51124;53.394;-6.294;2023-03-17T10:31:46;98941.81;;;20.80;7.85
64698;BME280;51124;53.394;-6.294;2023-03-17T10:34:16;98945.82;;;20.21;8.02
64698;BME280;51124;53.394;-6.294;2023-03-17T10:36:46;98947.58;;;20.43;7.94
64698;BME280;51124;53.394;-6.294;2023-03-17T10:39:17;98950.02;;;20.47;7.88
64698;BME280;51124;53.394;-6.294;2023-03-17T10:41:54;98948.80;;;20.61;7.77
64698;BME280;51124;53.394;-6.294;2023-03-17T10:44:27;98949.09;;;20.71;7.84
64698;BME280;51124;53.394;-6.294;2023-03-17T10:46:53;98947.37;;;20.37;7.94
64698;BME280;51124;53.394;-6.294;2023-03-17T10:49:17;98946.85;;;20.11;7.81
64698;BME280;51124;53.394;-6.294;2023-03-17T10:51:46;98950.64;;;19.19;8.04
64698;BME280;51124;53.394;-6.294;2023-03-17T10:54:19;98959.03;;;19.42;8.37
64698;BME280;51124;53.394;-6.294;2023-03-17T10:56:49;98961.44;;;18.81;8.54
64698;BME280;51124;53.394;-6.294;2023-03-17T10:59:27;98962.71;;;19.92;8.04
64698;BME280;51124;53.394;-6.294;2023-03-17T11:01:58;98962.51;;;19.92;8.49
64698;BME280;51124;53.394;-6.294;2023-03-17T11:04:31;98962.87;;;18.54;8.49
64698;BME280;51124;53.394;-6.294;2023-03-17T11:07:04;98961.78;;;18.34;8.52
64698;BME280;51124;53.394;-6.294;2023-03-17T11:09:36;98953.29;;;20.09;8.22
64698;BME280;51124;53.394;-6.294;2023-03-17T11:12:17;98954.51;;;19.51;8.26
64698;BME280;51124;53.394;-6.294;2023-03-17T11:14:37;98951.81;;;20.40;8.21
64698;BME280;51124;53.394;-6.294;2023-03-17T11:17:18;98949.00;;;20.83;8.02
64698;BME280;51124;53.394;-6.294;2023-03-17T11:19:44;98949.78;;;20.31;7.97
64698;BME280;51124;53.394;-6.294;2023-03-17T11:22:07;98952.73;;;19.59;8.09
64698;BME280;51124;53.394;-6.294;2023-03-17T11:24:41;98953.54;;;20.50;7.89
64698;BME280;51124;53.394;-6.294;2023-03-17T11:27:04;98951.47;;;20.75;7.84
64698;BME280;51124;53.394;-6.294;2023-03-17T11:29:37;98954.39;;;19.72;7.82
64698;BME280;51124;53.394;-6.294;2023-03-17T11:32:03;98957.44;;;22.98;8.15
64698;BME280;51124;53.394;-6.294;2023-03-17T11:34:50;98959.26;;;22.00;8.78
64698;BME280;51124;53.394;-6.294;2023-03-17T11:37:07;98961.10;;;20.40;8.89
64698;BME280;51124;53.394;-6.294;2023-03-17T11:39:31;98958.96;;;22.20;8.76
64698;BME280;51124;53.394;-6.294;2023-03-17T11:42:07;98968.62;;;23.11;9.38
64698;BME280;51124;53.394;-6.294;2023-03-17T11:45:11;98966.83;;;22.69;9.86
64698;BME280;51124;53.394;-6.294;2023-03-17T11:47:07;98962.83;;;22.46;9.95
64698;BME280;51124;53.394;-6.294;2023-03-17T11:49:33;98966.24;;;21.49;10.23
64698;BME280;51124;53.394;-6.294;2023-03-17T11:52:08;98968.73;;;21.67;10.37
64698;BME280;51124;53.394;-6.294;2023-03-17T11:54:45;98973.27;;;21.89;10.37
64698;BME280;51124;53.394;-6.294;2023-03-17T11:57:08;98974.03;;;22.07;10.49
64698;BME280;51124;53.394;-6.294;2023-03-17T11:59:41;98974.70;;;21.38;10.68
64698;BME280;51124;53.394;-6.294;2023-03-17T12:02:19;98978.40;;;22.03;10.60
64698;BME280;51124;53.394;-6.294;2023-03-17T12:04:49;98976.35;;;22.43;10.44
64698;BME280;51124;53.394;-6.294;2023-03-17T12:07:20;98974.04;;;21.98;10.65
64698;BME280;51124;53.394;-6.294;2023-03-17T12:09:41;98974.40;;;21.36;10.81
64698;BME280;51124;53.394;-6.294;2023-03-17T12:12:13;98969.63;;;21.94;10.74
64698;BME280;51124;53.394;-6.294;2023-03-17T12:14:49;98971.56;;;21.38;10.72
64698;BME280;51124;53.394;-6.294;2023-03-17T12:17:21;98973.74;;;21.47;10.91
64698;BME280;51124;53.394;-6.294;2023-03-17T12:20:02;98972.85;;;21.49;10.85
64698;BME280;51124;53.394;-6.294;2023-03-17T12:22:24;98970.46;;;19.67;11.81
64698;BME280;51124;53.394;-6.294;2023-03-17T12:25:02;98972.16;;;20.39;11.97
64698;BME280;51124;53.394;-6.294;2023-03-17T12:27:25;98968.83;;;20.17;11.91
64698;BME280;51124;53.394;-6.294;2023-03-17T12:29:59;98966.56;;;20.28;11.87
64698;BME280;51124;53.394;-6.294;2023-03-17T12:32:32;98966.03;;;18.53;11.60
64698;BME280;51124;53.394;-6.294;2023-03-17T12:35:10;98964.20;;;18.29;10.89
64698;BME280;51124;53.394;-6.294;2023-03-17T12:37:29;98959.71;;;18.57;10.69
64698;BME280;51124;53.394;-6.294;2023-03-17T12:40:00;98957.70;;;18.52;10.13
64698;BME280;51124;53.394;-6.294;2023-03-17T12:42:39;98961.95;;;18.31;10.18
64698;BME280;51124;53.394;-6.294;2023-03-17T12:45:20;98954.07;;;18.07;9.94
64698;BME280;51124;53.394;-6.294;2023-03-17T12:47:41;98952.50;;;18.57;9.61
64698;BME280;51124;53.394;-6.294;2023-03-17T12:50:02;98949.77;;;18.19;9.50
64698;BME280;51124;53.394;-6.294;2023-03-17T12:52:33;98947.91;;;18.44;9.40
64698;BME280;51124;53.394;-6.294;2023-03-17T12:54:54;98945.86;;;18.85;9.24
64698;BME280;51124;53.394;-6.294;2023-03-17T12:57:29;98945.61;;;18.94;9.15
64698;BME280;51124;53.394;-6.294;2023-03-17T12:59:59;98948.11;;;19.39;9.00
64698;BME280;51124;53.394;-6.294;2023-03-17T13:02:23;98946.16;;;20.23;8.97